Time;durP1;ratioP1;P1;durP2;ratioP2;P2;SDS_P1;SDS_P2;PMS_P1;PMS_P2;Temp;Humidity;BMP_temperature;BMP_pressure;BME280_temperature;BME280_humidity;BME280_pressure;Samples;Min_cycle;Max_cycle;Signal;HPM_P1;HPM_P2
2023/01/10 00:01:37;;;;;;;;;;;24.40;66.10;;;;;;6248593;22;19903;-70
2023/01/10 00:04:04;;;;;;;;;;;24.50;66.80;;;;;;6275709;22;19908;-70
2023/01/10 00:06:31;;;;;;;;;;;24.60;63.70;;;;;;6275387;22;19903;-70
2023/01/10 00:08:58;;;;;;;;;;;24.70;65.20;;;;;;6275269;22;19908;-70
2023/01/10 00:14:10;;;;;;;;;;;24.70;62.20;;;;;;6275693;22;19910;-71
2023/01/10 00:16:38;;;;;;;;;;;24.70;63.70;;;;;;6275841;22;19904;-70
2023/01/10 00:19:05;;;;;;;;;;;24.70;64.00;;;;;;6275937;22;19911;-71
2023/01/10 00:21:32;;;;;;;;;;;24.80;65.30;;;;;;6275899;22;19954;-70
2023/01/10 00:26:45;;;;;;;;;;;24.70;62.70;;;;;;6250667;22;20003;-69
2023/01/10 00:29:11;;;;;;;;;;;24.60;63.80;;;;;;6274064;22;19907;-70
2023/01/10 00:31:38;;;;;;;;;;;24.80;63.50;;;;;;6274117;22;20247;-69
2023/01/10 00:34:06;;;;;;;;;;;24.90;65.10;;;;;;6275416;22;19903;-70
2023/01/10 00:36:33;;;;;;;;;;;24.80;65.20;;;;;;6273513;22;20306;-70
2023/01/10 00:38:59;;;;;;;;;;;24.70;65.60;;;;;;6273773;22;19942;-70
2023/01/10 00:44:11;;;;;;;;;;;24.90;64.70;;;;;;6275362;22;19930;-70
2023/01/10 00:46:37;;;;;;;;;;;24.70;61.00;;;;;;6274701;22;19950;-70
2023/01/10 00:49:12;;;;;;;;;;;24.70;64.60;;;;;;6274652;22;19982;-70
2023/01/10 00:51:39;;;;;;;;;;;24.80;64.10;;;;;;6274514;22;19903;-71
2023/01/10 00:54:05;;;;;;;;;;;24.70;64.70;;;;;;6274990;22;19914;-71
2023/01/10 00:56:32;;;;;;;;;;;24.60;64.50;;;;;;6274977;22;19915;-70
2023/01/10 00:58:59;;;;;;;;;;;24.60;64.10;;;;;;6275183;22;19946;-70
2023/01/10 01:01:25;;;;;;;;;;;24.50;64.00;;;;;;6274893;22;20388;-71
2023/01/10 01:03:52;;;;;;;;;;;24.60;63.70;;;;;;6275239;22;19903;-71
2023/01/10 01:06:18;;;;;;;;;;;24.50;61.40;;;;;;6275102;22;19907;-71
2023/01/10 01:08:45;;;;;;;;;;;24.70;64.30;;;;;;6275307;22;19910;-70
2023/01/10 01:11:11;;;;;;;;;;;24.80;65.10;;;;;;6275577;22;19909;-70
2023/01/10 01:13:38;;;;;;;;;;;24.70;65.50;;;;;;6274691;22;19907;-70
2023/01/10 01:16:05;;;;;;;;;;;24.70;66.80;;;;;;6273358;22;19978;-70
2023/01/10 01:18:32;;;;;;;;;;;24.70;66.70;;;;;;6274067;22;20224;-70
2023/01/10 01:21:02;;;;;;;;;;;24.70;64.70;;;;;;6273681;22;20341;-70
2023/01/10 01:23:29;;;;;;;;;;;24.70;64.20;;;;;;6274072;22;19914;-70
2023/01/10 01:25:55;;;;;;;;;;;24.70;66.10;;;;;;6273877;22;19914;-70
2023/01/10 02:35:23;;;;;;;;;;;24.40;66.30;;;;;;6268678;22;20250;-70
2023/01/10 02:38:08;;;;;;;;;;;24.70;66.80;;;;;;6248889;22;20313;-70
2023/01/10 02:40:44;;;;;;;;;;;24.80;65.60;;;;;;6275827;22;19904;-71
2023/01/10 02:43:14;;;;;;;;;;;24.80;66.00;;;;;;6276090;22;19907;-70
2023/01/10 02:45:44;;;;;;;;;;;24.70;65.30;;;;;;6275099;22;19982;-70
2023/01/10 02:48:10;;;;;;;;;;;24.60;64.80;;;;;;6274941;22;20342;-70
2023/01/10 02:50:37;;;;;;;;;;;24.60;65.00;;;;;;6247675;22;19911;-71
2023/01/10 02:53:04;;;;;;;;;;;24.50;64.50;;;;;;6275332;22;19903;-70
2023/01/10 02:55:39;;;;;;;;;;;24.40;64.30;;;;;;6249141;22;19918;-70
2023/01/10 02:58:10;;;;;;;;;;;24.30;65.20;;;;;;6248022;22;19915;-71
2023/01/10 03:00:51;;;;;;;;;;;24.20;64.20;;;;;;6248886;22;19907;-70
2023/01/10 03:03:26;;;;;;;;;;;24.20;64.70;;;;;;6248391;22;19903;-70
2023/01/10 03:06:00;;;;;;;;;;;24.30;65.60;;;;;;6247349;22;19954;-70
2023/01/10 03:08:43;;;;;;;;;;;24.30;64.50;;;;;;6248640;22;19911;-71
2023/01/10 03:11:10;;;;;;;;;;;24.30;65.10;;;;;;6248042;22;19942;-72
2023/01/10 03:13:37;;;;;;;;;;;24.40;66.70;;;;;;6248960;22;19910;-71
2023/01/10 03:16:04;;;;;;;;;;;24.40;64.40;;;;;;6274941;22;19903;-71
2023/01/10 03:18:39;;;;;;;;;;;24.30;65.80;;;;;;6247809;22;19957;-71
2023/01/10 03:21:05;;;;;;;;;;;24.30;65.30;;;;;;6248172;22;19907;-71
2023/01/10 03:23:32;;;;;;;;;;;24.40;64.70;;;;;;6274471;22;19911;-70
2023/01/10 03:25:59;;;;;;;;;;;24.30;64.20;;;;;;6274947;22;19938;-70
2023/01/10 03:28:30;;;;;;;;;;;24.20;64.50;;;;;;6274899;22;20346;-71
2023/01/10 03:31:00;;;;;;;;;;;24.20;64.60;;;;;;6247193;22;19907;-71
2023/01/10 03:33:27;;;;;;;;;;;24.20;64.70;;;;;;6274768;22;20223;-71
2023/01/10 03:35:59;;;;;;;;;;;24.20;64.20;;;;;;6267819;22;19921;-71
2023/01/10 03:38:31;;;;;;;;;;;24.20;63.20;;;;;;6245889;22;19915;-71
2023/01/10 03:41:07;;;;;;;;;;;24.20;62.80;;;;;;6275662;22;19965;-71
2023/01/10 03:46:36;;;;;;;;;;;24.30;63.00;;;;;;6252263;22;20384;-71
2023/01/10 03:49:03;;;;;;;;;;;24.20;62.40;;;;;;6247892;22;19903;-71
2023/01/10 03:51:30;;;;;;;;;;;24.20;61.60;;;;;;6247960;22;20254;-71
2023/01/10 03:53:58;;;;;;;;;;;24.20;63.30;;;;;;6246545;22;19903;-70
2023/01/10 03:56:25;;;;;;;;;;;24.20;62.00;;;;;;6247093;22;20381;-71
2023/01/10 03:58:51;;;;;;;;;;;24.20;63.20;;;;;;6273804;22;19911;-70
2023/01/10 04:01:18;;;;;;;;;;;24.20;61.70;;;;;;6273816;22;20330;-71
2023/01/10 04:03:45;;;;;;;;;;;24.30;63.30;;;;;;6273662;22;19922;-70
2023/01/10 04:06:11;;;;;;;;;;;24.30;62.80;;;;;;6271422;22;19929;-71
2023/01/10 04:08:38;;;;;;;;;;;24.40;61.60;;;;;;6273429;22;19903;-70
2023/01/10 04:11:05;;;;;;;;;;;24.50;61.50;;;;;;6273433;22;20250;-70
2023/01/10 04:13:31;;;;;;;;;;;24.40;61.60;;;;;;6273687;22;19919;-70
2023/01/10 04:15:59;;;;;;;;;;;24.40;60.60;;;;;;6272933;22;20349;-70
2023/01/10 04:18:26;;;;;;;;;;;24.40;61.90;;;;;;6273413;22;19911;-70
2023/01/10 04:20:52;;;;;;;;;;;24.30;61.60;;;;;;6273954;22;19918;-71
2023/01/10 04:23:19;;;;;;;;;;;24.20;61.10;;;;;;6273465;22;20010;-70
2023/01/10 04:25:46;;;;;;;;;;;24.20;61.30;;;;;;6273556;22;19903;-70
2023/01/10 04:28:13;;;;;;;;;;;24.20;61.20;;;;;;6273540;22;19903;-70
2023/01/10 04:30:40;;;;;;;;;;;24.20;62.30;;;;;;6273645;22;19934;-70
2023/01/10 04:33:06;;;;;;;;;;;24.10;62.00;;;;;;6275064;22;19903;-70
2023/01/10 04:35:33;;;;;;;;;;;24.10;63.30;;;;;;6273747;22;19988;-70
2023/01/10 04:37:59;;;;;;;;;;;24.10;63.50;;;;;;6271364;22;20345;-69
2023/01/10 04:40:26;;;;;;;;;;;24.10;62.70;;;;;;6273544;22;20234;-71
2023/01/10 04:42:53;;;;;;;;;;;24.00;63.50;;;;;;6274687;22;19914;-71
2023/01/10 04:45:21;;;;;;;;;;;24.00;63.90;;;;;;6274983;22;19915;-71
2023/01/10 04:47:49;;;;;;;;;;;24.00;63.90;;;;;;6274399;22;20015;-70
2023/01/10 04:50:16;;;;;;;;;;;24.00;64.40;;;;;;6274523;22;19926;-71
2023/01/10 04:52:43;;;;;;;;;;;24.00;63.90;;;;;;6274544;22;19930;-70
2023/01/10 04:55:09;;;;;;;;;;;24.00;64.60;;;;;;6274825;22;19958;-70
2023/01/10 04:57:36;;;;;;;;;;;24.00;64.50;;;;;;6272122;22;20797;-70
2023/01/10 05:00:03;;;;;;;;;;;23.90;64.50;;;;;;6273092;22;19935;-70
2023/01/10 05:02:29;;;;;;;;;;;23.90;64.50;;;;;;6272541;22;19908;-71
2023/01/10 05:04:56;;;;;;;;;;;23.80;64.70;;;;;;6273568;22;19915;-70
2023/01/10 05:07:22;;;;;;;;;;;23.80;63.50;;;;;;6270979;22;20297;-69
2023/01/10 05:09:49;;;;;;;;;;;23.80;64.60;;;;;;6273634;22;19990;-70
2023/01/10 05:12:16;;;;;;;;;;;23.80;64.80;;;;;;6273388;22;20360;-69
2023/01/10 05:14:42;;;;;;;;;;;23.80;64.70;;;;;;6273005;22;19903;-69
2023/01/10 05:17:09;;;;;;;;;;;23.70;65.10;;;;;;6273198;22;19907;-69
2023/01/10 07:08:58;;;;;;;;;;;23.30;65.20;;;;;;6274704;22;19969;-69
2023/01/10 07:11:25;;;;;;;;;;;23.30;64.30;;;;;;6275590;22;20243;-69
2023/01/10 07:13:52;;;;;;;;;;;23.30;63.80;;;;;;6275801;22;19956;-68
2023/01/10 07:16:19;;;;;;;;;;;23.20;63.30;;;;;;6275794;22;19953;-69
2023/01/10 07:18:46;;;;;;;;;;;23.20;64.40;;;;;;6274903;22;19911;-68
2023/01/10 07:21:13;;;;;;;;;;;23.20;65.40;;;;;;6275706;22;19903;-69
2023/01/10 07:23:39;;;;;;;;;;;23.20;64.70;;;;;;6275381;22;19911;-69
2023/01/10 07:26:07;;;;;;;;;;;23.30;65.40;;;;;;6275522;22;19903;-69
2023/01/10 07:28:34;;;;;;;;;;;23.20;65.30;;;;;;6275148;22;19929;-70
2023/01/10 07:31:01;;;;;;;;;;;23.10;64.50;;;;;;6276142;22;19934;-70
2023/01/10 07:33:28;;;;;;;;;;;23.00;65.20;;;;;;6275248;22;19908;-70
2023/01/10 07:35:54;;;;;;;;;;;23.00;65.70;;;;;;6274024;22;19929;-69
2023/01/10 07:38:21;;;;;;;;;;;23.00;65.60;;;;;;6273504;22;19943;-69
2023/01/10 07:40:48;;;;;;;;;;;23.00;65.60;;;;;;6273410;22;20009;-69
2023/01/10 07:43:14;;;;;;;;;;;23.00;66.10;;;;;;6272350;22;20264;-69
2023/01/10 07:45:41;;;;;;;;;;;23.00;66.90;;;;;;6273862;22;19904;-70
2023/01/10 07:48:08;;;;;;;;;;;22.90;66.20;;;;;;6273657;22;19907;-70
2023/01/10 07:50:35;;;;;;;;;;;22.90;65.90;;;;;;6274724;22;19912;-70
2023/01/10 07:53:02;;;;;;;;;;;22.90;66.80;;;;;;6275647;22;19903;-69
2023/01/10 07:55:29;;;;;;;;;;;22.90;67.10;;;;;;6275466;22;20068;-69
2023/01/10 07:57:56;;;;;;;;;;;22.90;66.70;;;;;;6274504;22;20010;-70
2023/01/10 08:00:23;;;;;;;;;;;22.90;66.40;;;;;;6275635;22;19928;-69
2023/01/10 08:02:52;;;;;;;;;;;22.80;66.50;;;;;;6275010;22;19978;-70
2023/01/10 08:05:19;;;;;;;;;;;22.80;67.10;;;;;;6248262;22;20226;-70
2023/01/10 08:07:45;;;;;;;;;;;22.80;66.30;;;;;;6303078;22;19915;-71
2023/01/10 08:10:12;;;;;;;;;;;22.80;67.30;;;;;;6306885;22;19910;-70
2023/01/10 08:12:39;;;;;;;;;;;22.80;67.30;;;;;;6307030;22;19903;-70
2023/01/10 08:15:06;;;;;;;;;;;22.80;67.30;;;;;;6307052;22;19907;-70
2023/01/10 08:17:33;;;;;;;;;;;22.70;66.90;;;;;;6306375;22;19907;-70
2023/01/10 08:20:00;;;;;;;;;;;22.70;68.10;;;;;;6306877;22;19911;-70
2023/01/10 08:22:27;;;;;;;;;;;22.80;68.10;;;;;;6306892;22;19902;-70
2023/01/10 08:24:53;;;;;;;;;;;22.80;68.00;;;;;;6307068;22;19910;-70
2023/01/10 08:27:20;;;;;;;;;;;22.70;67.00;;;;;;6306981;22;20306;-70
2023/01/10 08:29:47;;;;;;;;;;;22.70;67.50;;;;;;6306665;22;19910;-70
2023/01/10 08:32:13;;;;;;;;;;;22.70;67.50;;;;;;6306690;22;19982;-70
2023/01/10 08:34:40;;;;;;;;;;;22.60;67.60;;;;;;6307034;22;19934;-70
2023/01/10 08:37:07;;;;;;;;;;;22.70;67.40;;;;;;6306946;22;20282;-70
2023/01/10 08:39:34;;;;;;;;;;;22.60;67.40;;;;;;6307302;22;19933;-70
2023/01/10 08:42:01;;;;;;;;;;;22.60;67.50;;;;;;6307096;22;20310;-70
2023/01/10 08:44:27;;;;;;;;;;;22.50;67.30;;;;;;6306349;22;20198;-69
2023/01/10 08:46:55;;;;;;;;;;;22.60;67.20;;;;;;6307303;22;20036;-70
